CST,Max TemperatureF,Mean TemperatureF,Min TemperatureF,Max Dew PointF,MeanDew PointF,Min DewpointF,Max Humidity, Mean Humidity, Min Humidity, Max Sea Level PressureIn, Mean Sea Level PressureIn, Min Sea Level PressureIn, Max VisibilityMiles, Mean VisibilityMiles, Min VisibilityMiles, Max Wind SpeedMPH, Mean Wind SpeedMPH, Max Gust SpeedMPH,PrecipitationIn, CloudCover, Events, WindDirDegrees
2012-12-1,54,43,32,40,33,28,94,77,48,29.92,29.78,29.68,10,7,2,24,11,34,0.00,1,,197
2012-12-2,59,42,26,39,33,23,91,69,45,29.94,29.84,29.65,10,8,5,21,5,29,0.00,0,,186
2012-12-3,53,46,39,46,35,22,92,65,39,29.98,29.72,29.50,10,8,3,30,16,37,0.00,2,,249
2012-12-4,39,28,17,22,17,11,80,62,49,30.37,30.20,29.99,10,10,10,13,7,18,0.00,0,,321
2012-12-5,48,32,17,28,19,11,76,58,38,30.37,30.02,29.71,10,10,10,26,12,36,0.00,1,,170
2012-12-6,49,38,27,32,25,19,72,56,36,30.01,29.88,29.71,10,10,10,25,15,31,0.00,3,,309
2012-12-7,29,25,21,27,23,18,96,85,71,30.02,30.00,29.97,10,6,0,12,1,,0.06,7,Snow,41
2012-12-8,31,27,23,30,25,22,96,95,90,30.01,29.95,29.82,10,4,0,17,4,22,0.00,8,Fog-Snow,148
2012-12-9,32,18,3,32,18,-2,99,91,81,30.05,29.87,29.76,7,2,0,25,13,32,0.01,8,Snow-Thunderstorm,307
2012-12-10,19,8,-4,14,-1,-13,84,72,59,30.05,29.91,29.77,10,9,3,16,10,24,0.00,3,Snow,266
2012-12-11,27,18,8,22,14,6,93,85,76,29.91,29.85,29.77,10,8,0,10,5,16,0.00,6,Fog-Snow,269
2012-12-12,41,24,8,26,20,6,93,66,48,29.88,29.79,29.75,10,10,5,23,11,30,0.18,0,,203
2012-12-13,36,24,11,22,14,10,93,87,53,30.10,29.99,29.83,10,7,2,15,9,16,0.00,0,,311
2012-12-14,37,24,10,32,22,8,93,83,64,30.10,29.88,29.66,10,8,3,16,4,22,0.00,0,,159
2012-12-15,35,28,21,32,29,18,99,95,85,29.66,29.57,29.49,10,2,0,23,6,28,0.26,8,Fog-Snow,323
2012-12-16,20,17,14,18,16,12,96,92,88,29.81,29.76,29.66,10,6,0,20,14,23,0.00,7,Fog-Snow,331
2012-12-17,25,22,18,24,20,17,96,94,93,29.78,29.70,29.61,7,3,0,0,0,,0.01,8,Fog-Snow,-1
2012-12-18,29,26,23,28,26,22,98,96,91,29.82,29.65,29.55,10,3,0,14,2,17,0.01,7,Fog-Snow,197
2012-12-19,33,26,18,26,20,14,96,82,72,30.02,29.92,29.82,10,10,5,15,6,21,0.01,4,Snow,296
2012-12-20,18,12,5,17,10,2,93,87,83,30.17,30.02,29.95,10,6,1,29,18,34,0.00,5,Snow,330
2012-12-21,19,10,1,12,5,-2,89,82,63,30.27,30.20,30.07,10,10,10,20,9,26,0.00,0,,271
2012-12-22,22,14,6,16,11,3,86,80,63,30.08,30.01,29.94,10,9,7,24,14,31,0.00,0,Snow,309
2012-12-23,12,8,4,8,4,1,88,85,78,30.10,30.05,29.99,10,9,5,14,9,18,0.00,3,Snow,360
2012-12-24,9,2,-6,7,-2,-11,89,83,75,30.31,30.13,29.98,10,7,2,18,12,25,0.00,3,Snow,327
2012-12-25,3,-2,-6,-3,-7,-11,83,79,73,30.49,30.42,30.32,10,10,10,15,10,,0.00,0,,324
2012-12-26,8,4,-1,1,-2,-6,84,80,71,30.37,30.27,30.19,10,10,10,0,0,,0.00,5,,-1
2012-12-27,16,11,6,14,8,2,93,86,79,30.19,30.13,30.07,10,5,1,7,1,,0.00,8,Snow,73
2012-12-28,15,11,7,13,10,5,93,90,88,30.06,30.04,30.00,10,4,0,10,2,,0.00,7,Fog-Snow,322
2012-12-29,13,7,1,10,4,-2,90,86,76,30.13,30.08,30.04,10,9,5,12,5,,0.00,2,Snow,247
2012-12-30,29,18,6,20,13,2,87,78,67,30.12,29.99,29.83,10,10,7,21,11,30,0.00,1,,233
2012-12-31,19,8,-4,16,2,-8,85,79,69,30.24,30.18,30.06,10,10,4,17,11,25,0.00,4,Snow,334